Time,TemperatureF,DewpointF,PressureIn,WindDirection,WindDirectionDegrees,WindSpeedMPH,WindSpeedGustMPH,Humidity,HourlyPrecipIn,Conditions,Clouds,dailyrainin,SolarRadiationWatts/m^2,SoftwareType,DateUTC
2013-03-02 00:02:00,16.0,8.0,-100.00,NNW,342,5.0,11.0,71,0.00,,,0.00,0.000000,,2013-03-02 05:02:00,
2013-03-02 00:32:00,14.0,7.0,-100.00,North,359,3.0,7.0,74,0.00,,,0.00,0.000000,,2013-03-02 05:32:00,
2013-03-02 00:42:00,14.0,7.0,-100.00,North,359,3.0,7.0,74,0.00,,,0.00,0.000000,,2013-03-02 05:42:00,
2013-03-02 00:52:00,14.0,7.0,-100.00,North,359,3.0,7.0,74,0.00,,,0.00,0.000000,,2013-03-02 05:52:00,
2013-03-02 01:01:00,14.0,7.0,-100.00,North,359,3.0,7.0,74,0.00,,,0.00,0.000000,,2013-03-02 06:01:00,
2013-03-02 01:11:00,14.0,7.0,-100.00,North,359,3.0,7.0,74,0.00,,,0.00,0.000000,,2013-03-02 06:11:00,
2013-03-02 01:32:00,15.0,7.0,-100.00,North,6,3.0,8.0,71,0.00,,,0.00,0.000000,,2013-03-02 06:32:00,
2013-03-02 01:42:00,15.0,7.0,-100.00,North,6,3.0,8.0,71,0.00,,,0.00,0.000000,,2013-03-02 06:42:00,
2013-03-02 01:52:00,15.0,7.0,-100.00,North,6,3.0,8.0,71,0.00,,,0.00,0.000000,,2013-03-02 06:52:00,
2013-03-02 02:01:00,15.0,7.0,-100.00,North,6,3.0,8.0,71,0.00,,,0.00,0.000000,,2013-03-02 07:01:00,
2013-03-02 02:11:00,15.0,7.0,-100.00,North,6,3.0,8.0,71,0.00,,,0.00,0.000000,,2013-03-02 07:11:00,
2013-03-02 02:32:00,14.0,7.0,-100.00,North,351,2.0,8.0,73,0.00,,,0.00,0.000000,,2013-03-02 07:32:00,
2013-03-02 02:42:00,14.0,7.0,-100.00,North,351,2.0,8.0,73,0.00,,,0.00,0.000000,,2013-03-02 07:42:00,
2013-03-02 02:52:00,14.0,7.0,-100.00,North,351,2.0,8.0,73,0.00,,,0.00,0.000000,,2013-03-02 07:52:00,
2013-03-02 03:01:00,14.0,7.0,-100.00,North,351,2.0,8.0,73,0.00,,,0.00,0.000000,,2013-03-02 08:01:00,
2013-03-02 03:11:00,14.0,7.0,-100.00,North,351,2.0,8.0,73,0.00,,,0.00,0.000000,,2013-03-02 08:11:00,
2013-03-02 03:32:00,15.0,8.0,-100.00,NNW,332,3.0,5.0,74,0.00,,,-99.99,0.000000,,2013-03-02 08:32:00,
2013-03-02 03:43:00,15.0,8.0,-100.00,NNW,332,3.0,5.0,74,0.00,,,-99.99,0.000000,,2013-03-02 08:43:00,
2013-03-02 03:52:00,15.0,8.0,-100.00,NNW,332,3.0,5.0,74,0.00,,,-99.99,0.000000,,2013-03-02 08:52:00,
2013-03-02 04:02:00,15.0,8.0,-100.00,NNW,332,3.0,5.0,74,0.00,,,-99.99,0.000000,,2013-03-02 09:02:00,
2013-03-02 04:11:00,15.0,8.0,-100.00,NNW,332,3.0,5.0,74,0.00,,,-99.99,0.000000,,2013-03-02 09:11:00,
2013-03-02 04:12:00,16.0,11.0,-100.00,North,351,3.0,6.0,79,0.00,,,0.00,0.000000,,2013-03-02 09:12:00,
2013-03-02 04:32:00,16.0,11.0,-100.00,North,351,3.0,6.0,79,0.00,,,0.00,0.000000,,2013-03-02 09:32:00,
2013-03-02 04:42:00,16.0,11.0,-100.00,North,351,3.0,6.0,79,0.00,,,0.00,0.000000,,2013-03-02 09:42:00,
2013-03-02 04:52:00,16.0,11.0,-100.00,North,351,3.0,6.0,79,0.00,,,0.00,0.000000,,2013-03-02 09:52:00,
2013-03-02 05:01:00,16.0,11.0,-100.00,North,351,3.0,6.0,79,0.00,,,0.00,0.000000,,2013-03-02 10:01:00,
2013-03-02 05:32:00,17.0,13.0,-100.00,North,354,3.0,7.0,83,0.00,,,0.00,0.000000,,2013-03-02 10:32:00,
2013-03-02 05:43:00,17.0,13.0,-100.00,North,354,3.0,7.0,83,0.00,,,0.00,0.000000,,2013-03-02 10:43:00,
2013-03-02 05:52:00,17.0,13.0,-100.00,North,354,3.0,7.0,83,0.00,,,0.00,0.000000,,2013-03-02 10:52:00,
2013-03-02 06:01:00,17.0,13.0,-100.00,North,354,3.0,7.0,83,0.00,,,0.00,0.000000,,2013-03-02 11:01:00,
2013-03-02 06:11:00,17.0,13.0,-100.00,North,354,3.0,7.0,83,0.00,,,0.00,0.000000,,2013-03-02 11:11:00,
2013-03-02 06:32:00,17.0,12.0,-100.00,North,3,4.0,11.0,80,0.00,,,0.00,0.000000,,2013-03-02 11:32:00,
2013-03-02 06:42:00,17.0,12.0,-100.00,North,3,4.0,11.0,80,0.00,,,0.00,0.000000,,2013-03-02 11:42:00,
2013-03-02 06:52:00,17.0,12.0,-100.00,North,3,4.0,11.0,80,0.00,,,0.00,0.000000,,2013-03-02 11:52:00,
2013-03-02 07:02:00,17.0,12.0,-100.00,North,3,4.0,11.0,80,0.00,,,0.00,0.000000,,2013-03-02 12:02:00,
2013-03-02 07:11:00,17.0,12.0,-100.00,North,3,4.0,11.0,80,0.00,,,0.00,0.000000,,2013-03-02 12:11:00,
2013-03-02 07:33:00,17.0,13.0,-100.00,North,351,4.0,9.0,85,0.00,,,0.00,0.000000,,2013-03-02 12:33:00,
2013-03-02 07:43:00,17.0,13.0,-100.00,North,351,4.0,9.0,85,0.00,,,0.00,0.000000,,2013-03-02 12:43:00,
2013-03-02 07:53:00,17.0,13.0,-100.00,North,351,4.0,9.0,85,0.00,,,0.00,0.000000,,2013-03-02 12:53:00,
2013-03-02 08:01:00,17.0,13.0,-100.00,North,351,4.0,9.0,85,0.00,,,0.00,0.000000,,2013-03-02 13:01:00,
2013-03-02 08:11:00,17.0,13.0,-100.00,North,351,4.0,9.0,85,0.00,,,0.00,0.000000,,2013-03-02 13:11:00,
2013-03-02 08:42:00,17.0,12.0,-100.00,NNE,12,4.0,10.0,81,0.00,,,0.00,17.000000,,2013-03-02 13:42:00,
2013-03-02 08:52:00,17.0,12.0,-100.00,NNE,12,4.0,10.0,81,0.00,,,0.00,17.000000,,2013-03-02 13:52:00,
2013-03-02 09:01:00,17.0,12.0,-100.00,NNE,12,4.0,10.0,81,0.00,,,0.00,17.000000,,2013-03-02 14:01:00,
2013-03-02 09:11:00,17.0,12.0,-100.00,NNE,12,4.0,10.0,81,0.00,,,0.00,17.000000,,2013-03-02 14:11:00,
2013-03-02 09:32:00,18.0,13.0,-100.00,NNW,347,5.0,10.0,80,0.00,,,0.00,75.000000,,2013-03-02 14:32:00,
2013-03-02 09:42:00,18.0,13.0,-100.00,NNW,347,5.0,10.0,80,0.00,,,0.00,75.000000,,2013-03-02 14:42:00,
2013-03-02 09:52:00,18.0,13.0,-100.00,NNW,347,5.0,10.0,80,0.00,,,0.00,75.000000,,2013-03-02 14:52:00,
2013-03-02 10:02:00,18.0,13.0,-100.00,NNW,347,5.0,10.0,80,0.00,,,0.00,75.000000,,2013-03-02 15:02:00,
2013-03-02 10:11:00,18.0,13.0,-100.00,NNW,347,5.0,10.0,80,0.00,,,0.00,75.000000,,2013-03-02 15:11:00,
2013-03-02 10:32:00,18.0,13.0,-100.00,North,354,6.0,12.0,80,0.00,,,0.00,85.000000,,2013-03-02 15:32:00,
2013-03-02 10:42:00,18.0,13.0,-100.00,North,354,6.0,12.0,80,0.00,,,0.00,85.000000,,2013-03-02 15:42:00,
2013-03-02 10:52:00,18.0,13.0,-100.00,North,354,6.0,12.0,80,0.00,,,0.00,85.000000,,2013-03-02 15:52:00,
2013-03-02 11:01:00,18.0,13.0,-100.00,North,354,6.0,12.0,80,0.00,,,0.00,85.000000,,2013-03-02 16:01:00,
2013-03-02 11:11:00,18.0,13.0,-100.00,North,354,6.0,12.0,80,0.00,,,0.00,85.000000,,2013-03-02 16:11:00,
2013-03-02 11:32:00,21.0,13.0,-100.00,North,359,6.0,15.0,72,0.00,,,0.00,212.000000,,2013-03-02 16:32:00,
2013-03-02 11:42:00,21.0,13.0,-100.00,North,359,6.0,15.0,72,0.00,,,0.00,212.000000,,2013-03-02 16:42:00,
2013-03-02 11:52:00,21.0,13.0,-100.00,North,359,6.0,15.0,72,0.00,,,0.00,212.000000,,2013-03-02 16:52:00,
2013-03-02 12:01:00,21.0,13.0,-100.00,North,359,6.0,15.0,72,0.00,,,0.00,212.000000,,2013-03-02 17:01:00,
2013-03-02 12:11:00,21.0,13.0,-100.00,North,359,6.0,15.0,72,0.00,,,0.00,212.000000,,2013-03-02 17:11:00,
2013-03-02 12:32:00,22.0,12.0,-100.00,North,2,6.0,16.0,64,0.00,,,0.00,335.000000,,2013-03-02 17:32:00,
2013-03-02 12:42:00,22.0,12.0,-100.00,North,2,6.0,16.0,64,0.00,,,0.00,335.000000,,2013-03-02 17:42:00,
2013-03-02 12:52:00,22.0,12.0,-100.00,North,2,6.0,16.0,64,0.00,,,0.00,335.000000,,2013-03-02 17:52:00,
2013-03-02 13:02:00,22.0,12.0,-100.00,North,2,6.0,16.0,64,0.00,,,0.00,335.000000,,2013-03-02 18:02:00,
2013-03-02 13:11:00,22.0,12.0,-100.00,North,2,6.0,16.0,64,0.00,,,0.00,335.000000,,2013-03-02 18:11:00,
2013-03-02 13:32:00,21.0,10.0,-100.00,NNW,343,9.0,16.0,62,0.00,,,0.00,352.000000,,2013-03-02 18:32:00,
2013-03-02 13:42:00,21.0,10.0,-100.00,NNW,343,9.0,16.0,62,0.00,,,0.00,352.000000,,2013-03-02 18:42:00,
2013-03-02 13:52:00,21.0,10.0,-100.00,NNW,343,9.0,16.0,62,0.00,,,0.00,352.000000,,2013-03-02 18:52:00,
2013-03-02 14:01:00,21.0,10.0,-100.00,NNW,343,9.0,16.0,62,0.00,,,0.00,352.000000,,2013-03-02 19:01:00,
2013-03-02 14:11:00,21.0,10.0,-100.00,NNW,343,9.0,16.0,62,0.00,,,0.00,352.000000,,2013-03-02 19:11:00,
2013-03-02 14:42:00,22.0,9.0,-100.00,North,355,8.0,16.0,56,0.00,,,0.00,480.000000,,2013-03-02 19:42:00,
2013-03-02 14:52:00,22.0,9.0,-100.00,North,355,8.0,16.0,56,0.00,,,0.00,480.000000,,2013-03-02 19:52:00,
2013-03-02 15:01:00,22.0,9.0,-100.00,North,355,8.0,16.0,56,0.00,,,0.00,480.000000,,2013-03-02 20:01:00,
2013-03-02 15:11:00,22.0,9.0,-100.00,North,355,8.0,16.0,56,0.00,,,0.00,480.000000,,2013-03-02 20:11:00,
2013-03-02 15:32:00,23.0,8.0,-100.00,NNW,338,7.0,15.0,52,0.00,,,0.00,612.000000,,2013-03-02 20:32:00,
2013-03-02 15:42:00,23.0,8.0,-100.00,NNW,338,7.0,15.0,52,0.00,,,0.00,612.000000,,2013-03-02 20:42:00,
2013-03-02 15:52:00,23.0,8.0,-100.00,NNW,338,7.0,15.0,52,0.00,,,0.00,612.000000,,2013-03-02 20:52:00,
2013-03-02 16:02:00,23.0,8.0,-100.00,NNW,338,7.0,15.0,52,0.00,,,0.00,612.000000,,2013-03-02 21:02:00,
2013-03-02 16:11:00,23.0,8.0,-100.00,NNW,338,7.0,15.0,52,0.00,,,0.00,612.000000,,2013-03-02 21:11:00,
2013-03-02 16:32:00,23.0,8.0,-100.00,NNE,14,6.0,15.0,52,0.00,,,0.00,511.000000,,2013-03-02 21:32:00,
2013-03-02 16:42:00,23.0,8.0,-100.00,NNE,14,6.0,15.0,52,0.00,,,0.00,511.000000,,2013-03-02 21:42:00,
2013-03-02 16:52:00,23.0,8.0,-100.00,NNE,14,6.0,15.0,52,0.00,,,0.00,511.000000,,2013-03-02 21:52:00,
2013-03-02 17:02:00,23.0,8.0,-100.00,NNE,14,6.0,15.0,52,0.00,,,0.00,511.000000,,2013-03-02 22:02:00,
2013-03-02 17:11:00,23.0,8.0,-100.00,NNE,14,6.0,15.0,52,0.00,,,0.00,511.000000,,2013-03-02 22:11:00,
2013-03-02 17:42:00,22.0,8.0,-100.00,North,359,5.0,14.0,54,0.00,,,0.00,343.000000,,2013-03-02 22:42:00,
2013-03-02 17:52:00,22.0,8.0,-100.00,North,359,5.0,14.0,54,0.00,,,0.00,343.000000,,2013-03-02 22:52:00,
2013-03-02 18:01:00,22.0,8.0,-100.00,North,359,5.0,14.0,54,0.00,,,0.00,343.000000,,2013-03-02 23:01:00,
2013-03-02 18:11:00,22.0,8.0,-100.00,North,359,5.0,14.0,54,0.00,,,0.00,343.000000,,2013-03-02 23:11:00,
2013-03-02 18:32:00,19.0,6.0,-100.00,NNE,18,5.0,11.0,57,0.00,,,0.00,159.000000,,2013-03-02 23:32:00,
2013-03-02 18:42:00,19.0,6.0,-100.00,NNE,18,5.0,11.0,57,0.00,,,0.00,159.000000,,2013-03-02 23:42:00,
2013-03-02 18:52:00,19.0,6.0,-100.00,NNE,18,5.0,11.0,57,0.00,,,0.00,159.000000,,2013-03-02 23:52:00,
2013-03-02 19:02:00,19.0,6.0,-100.00,NNE,18,5.0,11.0,57,0.00,,,0.00,159.000000,,2013-03-03 00:02:00,
2013-03-02 19:11:00,19.0,6.0,-100.00,NNE,18,5.0,11.0,57,0.00,,,0.00,159.000000,,2013-03-03 00:11:00,
2013-03-02 19:32:00,14.0,4.0,-100.00,NNW,346,4.0,10.0,64,0.00,,,0.00,8.000000,,2013-03-03 00:32:00,
2013-03-02 19:42:00,14.0,4.0,-100.00,NNW,346,4.0,10.0,64,0.00,,,0.00,8.000000,,2013-03-03 00:42:00,
2013-03-02 19:52:00,14.0,4.0,-100.00,NNW,346,4.0,10.0,64,0.00,,,0.00,8.000000,,2013-03-03 00:52:00,
2013-03-02 20:01:00,14.0,4.0,-100.00,NNW,346,4.0,10.0,64,0.00,,,0.00,8.000000,,2013-03-03 01:01:00,
2013-03-02 20:11:00,14.0,4.0,-100.00,NNW,346,4.0,10.0,64,0.00,,,0.00,8.000000,,2013-03-03 01:11:00,
2013-03-02 20:32:00,13.0,4.0,-100.00,NNW,333,5.0,8.0,67,0.00,,,0.00,0.000000,,2013-03-03 01:32:00,
2013-03-02 20:42:00,13.0,4.0,-100.00,NNW,333,5.0,8.0,67,0.00,,,0.00,0.000000,,2013-03-03 01:42:00,
2013-03-02 20:52:00,13.0,4.0,-100.00,NNW,333,5.0,8.0,67,0.00,,,0.00,0.000000,,2013-03-03 01:52:00,
2013-03-02 21:01:00,13.0,4.0,-100.00,NNW,333,5.0,8.0,67,0.00,,,0.00,0.000000,,2013-03-03 02:01:00,
2013-03-02 21:11:00,13.0,4.0,-100.00,NNW,333,5.0,8.0,67,0.00,,,0.00,0.000000,,2013-03-03 02:11:00,
2013-03-02 21:32:00,11.0,3.0,-100.00,NNW,340,4.0,8.0,70,0.00,,,0.00,0.000000,,2013-03-03 02:32:00,
2013-03-02 21:42:00,11.0,3.0,-100.00,NNW,340,4.0,8.0,70,0.00,,,0.00,0.000000,,2013-03-03 02:42:00,
2013-03-02 21:52:00,11.0,3.0,-100.00,NNW,340,4.0,8.0,70,0.00,,,0.00,0.000000,,2013-03-03 02:52:00,
2013-03-02 22:01:00,11.0,3.0,-100.00,NNW,340,4.0,8.0,70,0.00,,,0.00,0.000000,,2013-03-03 03:01:00,
2013-03-02 22:11:00,11.0,3.0,-100.00,NNW,340,4.0,8.0,70,0.00,,,0.00,0.000000,,2013-03-03 03:11:00,
2013-03-02 22:32:00,10.0,3.0,-100.00,NNW,341,4.0,7.0,73,0.00,,,0.00,0.000000,,2013-03-03 03:32:00,
2013-03-02 22:42:00,10.0,3.0,-100.00,NNW,341,4.0,7.0,73,0.00,,,0.00,0.000000,,2013-03-03 03:42:00,
2013-03-02 22:52:00,10.0,3.0,-100.00,NNW,341,4.0,7.0,73,0.00,,,0.00,0.000000,,2013-03-03 03:52:00,
2013-03-02 23:01:00,10.0,3.0,-100.00,NNW,341,4.0,7.0,73,0.00,,,0.00,0.000000,,2013-03-03 04:01:00,
2013-03-02 23:11:00,10.0,3.0,-100.00,NNW,341,4.0,7.0,73,0.00,,,0.00,0.000000,,2013-03-03 04:11:00,
2013-03-02 23:32:00,10.0,3.0,-100.00,NW,326,6.0,9.0,74,0.00,,,0.00,0.000000,,2013-03-03 04:32:00,
2013-03-02 23:42:00,10.0,3.0,-100.00,NW,326,6.0,9.0,74,0.00,,,0.00,0.000000,,2013-03-03 04:42:00,
2013-03-02 23:52:00,10.0,3.0,-100.00,NW,326,6.0,9.0,74,0.00,,,0.00,0.000000,,2013-03-03 04:52:00,